Time;durP1;ratioP1;P1;durP2;ratioP2;P2;SDS_P1;SDS_P2;PMS_P1;PMS_P2;Temp;Humidity;BMP_temperature;BMP_pressure;BME280_temperature;BME280_humidity;BME280_pressure;Samples;Min_cycle;Max_cycle;Signal;HPM_P1;HPM_P2
2023/06/05 00:01:09;;;;;;;2.03;1.40;;;;;;;12.87;71.08;101498.47;6247368;22;20075;-78
2023/06/05 00:03:37;;;;;;;4.18;1.35;;;;;;;12.80;71.71;101509.88;6247447;22;20018;-79
2023/06/05 00:06:04;;;;;;;2.55;2.20;;;;;;;12.78;72.28;101503.78;6243239;22;20243;-79
2023/06/05 00:08:30;;;;;;;2.15;1.80;;;;;;;12.73;72.77;101503.78;6245993;22;20073;-83
2023/06/05 00:10:57;;;;;;;2.30;2.05;;;;;;;12.70;72.88;101509.06;6246928;22;20103;-77
2023/06/05 00:13:23;;;;;;;2.55;1.67;;;;;;;12.63;73.87;101505.53;6245153;22;20094;-78
2023/06/05 00:15:51;;;;;;;3.78;1.55;;;;;;;12.62;74.17;101505.56;6218001;22;20084;-78
2023/06/05 00:18:18;;;;;;;5.28;2.05;;;;;;;12.56;74.89;101504.69;6243437;22;20019;-79
2023/06/05 00:20:45;;;;;;;3.85;2.00;;;;;;;12.53;74.44;101507.34;6270134;22;20043;-83
2023/06/05 00:23:12;;;;;;;7.43;2.30;;;;;;;12.43;75.39;101512.66;6218902;22;20020;-78
2023/06/05 00:25:38;;;;;;;1.98;1.60;;;;;;;12.39;75.86;101504.75;6246292;22;20019;-77
2023/06/05 00:28:05;;;;;;;2.20;2.00;;;;;;;12.35;76.73;101507.41;6245923;22;20015;-79
2023/06/05 00:30:31;;;;;;;2.85;2.17;;;;;;;12.33;77.00;101503.91;6273013;22;20074;-77
2023/06/05 00:32:58;;;;;;;1.70;1.40;;;;;;;12.24;77.01;101504.78;6245056;22;20015;-81
2023/06/05 00:35:24;;;;;;;3.03;1.58;;;;;;;12.20;77.34;101510.94;6220198;22;20023;-79
2023/06/05 00:37:51;;;;;;;2.22;1.75;;;;;;;12.14;78.06;101505.72;6244937;22;20431;-85
2023/06/05 00:40:17;;;;;;;3.15;2.17;;;;;;;12.13;78.49;101502.19;6244425;22;20019;-77
2023/06/05 00:42:44;;;;;;;3.10;1.70;;;;;;;12.10;78.50;101506.56;6244628;22;20035;-77
2023/06/05 00:45:11;;;;;;;3.10;1.55;;;;;;;12.03;78.79;101513.59;6240291;22;20022;-79
2023/06/05 00:47:37;;;;;;;5.60;2.15;;;;;;;11.92;79.04;101505.69;6218451;22;20011;-78
2023/06/05 00:50:04;;;;;;;4.82;1.67;;;;;;;11.85;79.96;101498.69;6218469;22;20058;-83
2023/06/05 00:52:33;;;;;;;5.07;2.75;;;;;;;11.85;79.94;101498.69;6244222;22;20031;-77
2023/06/05 00:55:00;;;;;;;5.70;2.40;;;;;;;11.80;80.53;101503.97;6243945;22;20097;-79
2023/06/05 00:57:28;;;;;;;2.67;1.75;;;;;;;11.80;80.87;101505.69;6244099;22;20019;-78
2023/06/05 00:59:55;;;;;;;2.63;1.88;;;;;;;11.70;81.33;101510.06;6243871;22;20443;-77
2023/06/05 01:02:21;;;;;;;2.83;2.13;;;;;;;11.67;81.94;101502.22;6244856;22;20019;-77
2023/06/05 01:04:48;;;;;;;3.35;1.67;;;;;;;11.64;82.39;101502.19;6244188;22;20023;-82
2023/06/05 01:07:16;;;;;;;2.33;2.03;;;;;;;11.52;81.96;101496.06;6218494;22;20051;-87
2023/06/05 01:09:44;;;;;;;2.80;2.15;;;;;;;11.51;83.63;101498.69;6240097;22;20057;-81
2023/06/05 01:12:31;;;;;;;2.95;1.90;;;;;;;11.49;82.98;101495.22;6217168;22;20042;-81
2023/06/05 01:15:02;;;;;;;2.83;1.92;;;;;;;11.42;84.19;101492.59;6240918;22;20081;-78
2023/06/05 01:17:32;;;;;;;3.03;2.72;;;;;;;11.37;84.50;101486.47;6243345;22;20019;-78
2023/06/05 01:20:00;;;;;;;2.25;1.85;;;;;;;11.40;84.16;101494.31;6244315;22;20026;-78
2023/06/05 01:22:27;;;;;;;2.80;1.75;;;;;;;11.35;84.15;101500.44;6244545;22;20019;-80
2023/06/05 01:24:53;;;;;;;3.22;1.77;;;;;;;11.31;84.78;101493.44;6242108;22;20354;-82
2023/06/05 01:27:56;;;;;;;3.63;1.98;;;;;;;11.31;85.11;101499.53;6217968;22;20065;-78
2023/06/05 01:30:52;;;;;;;2.55;2.30;;;;;;;11.24;85.07;101496.03;6244281;22;20011;-81
2023/06/05 01:33:44;;;;;;;2.63;1.85;;;;;;;11.17;86.65;101483.81;6245224;22;20008;-78
2023/06/05 01:36:14;;;;;;;2.55;1.95;;;;;;;11.12;86.50;101493.41;6244299;22;20086;-80
2023/06/05 01:38:42;;;;;;;3.95;2.17;;;;;;;11.07;86.36;101489.91;6218963;22;20019;-78
2023/06/05 01:41:11;;;;;;;2.70;1.95;;;;;;;11.03;87.08;101488.13;6243375;22;20098;-77
2023/06/05 01:43:39;;;;;;;2.55;1.85;;;;;;;10.98;87.16;101482.88;6242371;22;20027;-78
2023/06/05 01:46:07;;;;;;;2.05;1.88;;;;;;;10.94;87.75;101478.50;6239232;22;20439;-86
2023/06/05 01:48:38;;;;;;;1.90;1.60;;;;;;;10.88;88.47;101478.50;6218716;22;20024;-77
2023/06/05 01:51:05;;;;;;;2.83;2.42;;;;;;;10.79;88.44;101479.31;6243081;22;20474;-88
2023/06/05 01:53:32;;;;;;;3.80;2.33;;;;;;;10.79;88.91;101481.09;6243621;22;20118;-78
2023/06/05 01:55:59;;;;;;;3.38;2.35;;;;;;;10.72;89.54;101483.66;6244463;22;20024;-80
2023/06/05 01:58:27;;;;;;;1.90;1.80;;;;;;;10.67;89.57;101482.78;6218849;22;20016;-77
2023/06/05 02:00:56;;;;;;;6.03;2.35;;;;;;;10.63;90.25;101486.25;6247003;22;20015;-83
2023/06/05 02:03:24;;;;;;;4.22;2.60;;;;;;;10.57;90.23;101481.88;6244899;22;20050;-80
2023/06/05 02:05:51;;;;;;;2.95;2.42;;;;;;;10.51;91.09;101489.69;6219405;22;20015;-78
2023/06/05 02:08:22;;;;;;;4.53;2.50;;;;;;;10.52;91.35;101487.94;6244897;22;20455;-80
2023/06/05 02:10:54;;;;;;;3.63;2.33;;;;;;;10.48;91.46;101483.56;6218844;22;20456;-77
2023/06/05 02:13:24;;;;;;;3.05;2.30;;;;;;;10.41;91.90;101482.66;6242773;22;20024;-78
2023/06/05 02:15:55;;;;;;;3.60;2.20;;;;;;;10.37;92.78;101480.91;6218717;22;20304;-87
2023/06/05 02:18:24;;;;;;;2.83;2.10;;;;;;;10.33;92.95;101484.34;6270749;22;20042;-79
2023/06/05 02:20:56;;;;;;;2.60;2.15;;;;;;;10.32;93.13;101487.81;6244647;22;20015;-78
2023/06/05 02:23:23;;;;;;;4.15;2.30;;;;;;;10.26;93.66;101486.06;6243347;22;20051;-80
2023/06/05 02:25:50;;;;;;;6.53;2.85;;;;;;;10.25;94.48;101479.06;6243658;22;20016;-81
2023/06/05 02:28:16;;;;;;;5.55;2.38;;;;;;;10.18;94.18;101485.13;6250402;22;20015;-85
2023/06/05 02:30:44;;;;;;;5.47;2.60;;;;;;;10.16;95.17;101477.25;6246322;22;20012;-83
2023/06/05 02:33:11;;;;;;;2.17;1.98;;;;;;;10.09;95.54;101476.34;6218849;22;20051;-79
2023/06/05 02:35:39;;;;;;;2.72;2.53;;;;;;;10.07;96.50;101482.44;6245313;22;20020;-83
2023/06/05 02:38:06;;;;;;;4.03;2.72;;;;;;;10.02;96.59;101479.78;6219314;22;20031;-82
2023/06/05 02:40:32;;;;;;;3.63;2.72;;;;;;;10.01;96.78;101474.53;6244066;22;20069;-79
2023/06/05 02:43:00;;;;;;;3.40;2.47;;;;;;;9.93;97.13;101478.00;6242413;22;20447;-82
2023/06/05 02:45:26;;;;;;;4.80;3.25;;;;;;;9.88;98.19;101471.88;6240096;22;20024;-80
2023/06/05 02:47:53;;;;;;;6.30;3.13;;;;;;;9.84;98.40;101469.19;6243339;22;20126;-83
2023/06/05 02:50:19;;;;;;;7.68;3.45;;;;;;;9.81;98.56;101469.19;6243024;22;20023;-80
2023/06/05 02:52:46;;;;;;;2.80;2.63;;;;;;;9.83;98.96;101475.28;6244961;22;20063;-78
2023/06/05 02:55:12;;;;;;;3.65;2.90;;;;;;;9.84;98.84;101482.28;6246397;22;20073;-79
2023/06/05 02:57:41;;;;;;;3.80;2.67;;;;;;;9.80;99.35;101470.91;6220817;22;20019;-82
2023/06/05 03:00:15;;;;;;;4.63;2.85;;;;;;;9.81;99.36;101483.13;6245503;22;20024;-78
2023/06/05 03:02:42;;;;;;;3.10;2.75;;;;;;;9.76;99.35;101475.25;6246472;22;20454;-82
2023/06/05 03:05:09;;;;;;;3.47;3.00;;;;;;;9.71;99.82;101471.75;6245975;22;20041;-82
2023/06/05 03:07:36;;;;;;;6.85;3.67;;;;;;;9.72;100.00;101480.44;6244778;22;20350;-80
2023/06/05 03:10:02;;;;;;;3.22;2.65;;;;;;;9.74;100.00;101469.13;6245526;22;20016;-81
2023/06/05 03:12:29;;;;;;;3.25;2.53;;;;;;;9.72;100.00;101470.84;6244908;22;20070;-85
2023/06/05 03:14:55;;;;;;;5.70;2.85;;;;;;;9.68;100.00;101471.69;6245847;22;20022;-86
2023/06/05 03:17:23;;;;;;;3.95;3.40;;;;;;;9.66;100.00;101467.31;6244959;22;20674;-79
2023/06/05 03:19:49;;;;;;;5.03;3.15;;;;;;;9.59;100.00;101471.63;6220540;22;20446;-80
2023/06/05 03:22:17;;;;;;;4.72;3.42;;;;;;;9.58;100.00;101467.25;6269381;22;20138;-90
2023/06/05 03:24:44;;;;;;;3.50;2.78;;;;;;;9.55;100.00;101469.84;6242969;22;20123;-79
2023/06/05 03:27:10;;;;;;;3.83;2.88;;;;;;;9.53;100.00;101469.84;6243325;22;20012;-81
2023/06/05 03:29:37;;;;;;;5.30;3.17;;;;;;;9.53;100.00;101461.09;6246025;22;20518;-80
2023/06/05 03:32:04;;;;;;;4.28;3.90;;;;;;;9.56;100.00;101463.75;6245947;22;20480;-78
2023/06/05 03:34:32;;;;;;;6.55;3.13;;;;;;;9.52;100.00;101460.25;6245551;22;20431;-81
2023/06/05 03:36:59;;;;;;;3.95;3.53;;;;;;;9.55;100.00;101462.00;6245218;22;20095;-78
2023/06/05 03:39:26;;;;;;;5.82;3.65;;;;;;;9.52;100.00;101464.59;6245955;22;20019;-81
2023/06/05 03:41:52;;;;;;;6.30;3.42;;;;;;;9.55;100.00;101460.25;6246447;22;20011;-79
2023/06/05 03:44:20;;;;;;;5.13;3.42;;;;;;;9.55;100.00;101462.00;6273972;22;20019;-79
2023/06/05 03:46:46;;;;;;;7.32;4.18;;;;;;;9.59;100.00;101463.78;6244084;22;20012;-80
2023/06/05 03:49:13;;;;;;;8.15;3.85;;;;;;;9.63;100.00;101456.84;6245725;22;20126;-79
2023/06/05 03:51:41;;;;;;;4.50;3.10;;;;;;;9.62;100.00;101463.81;6248243;22;20038;-80
2023/06/05 03:54:08;;;;;;;4.78;3.78;;;;;;;9.66;100.00;101462.97;6246824;22;20015;-78
2023/06/05 03:56:38;;;;;;;4.35;3.90;;;;;;;9.69;100.00;101463.00;6222039;22;20478;-81
2023/06/05 03:59:11;;;;;;;5.32;3.58;;;;;;;9.72;100.00;101456.91;6248075;22;20015;-88
2023/06/05 04:01:38;;;;;;;6.50;3.67;;;;;;;9.75;100.00;101467.38;6243646;22;20011;-79
2023/06/05 04:04:08;;;;;;;4.38;3.60;;;;;;;9.81;100.00;101463.97;6217676;22;20019;-81
2023/06/05 04:06:36;;;;;;;5.10;4.35;;;;;;;9.83;100.00;101460.50;6245245;22;20094;-82
2023/06/05 04:09:09;;;;;;;4.20;3.22;;;;;;;9.85;100.00;101465.72;6245067;22;20019;-83
2023/06/05 04:11:35;;;;;;;6.72;3.10;;;;;;;9.90;100.00;101464.03;6246176;22;20016;-82
2023/06/05 04:14:02;;;;;;;3.65;3.25;;;;;;;9.95;100.00;101470.16;6243610;22;20110;-87
2023/06/05 04:16:29;;;;;;;4.55;3.42;;;;;;;9.96;100.00;101471.91;6242194;22;20347;-78
2023/06/05 04:18:56;;;;;;;4.90;3.58;;;;;;;10.01;100.00;101474.53;6242623;22;20019;-78
2023/06/05 04:21:22;;;;;;;3.97;3.53;;;;;;;10.06;100.00;101470.22;6241348;22;20022;-81
2023/06/05 04:23:49;;;;;;;6.20;3.83;;;;;;;10.07;100.00;101469.38;6242868;22;20426;-78
2023/06/05 04:26:17;;;;;;;5.60;3.78;;;;;;;10.13;100.00;101472.03;6242027;22;20019;-84
2023/06/05 04:28:43;;;;;;;5.10;3.42;;;;;;;10.21;100.00;101469.47;6217827;22;20027;-80
2023/06/05 04:31:10;;;;;;;4.70;3.65;;;;;;;10.27;100.00;101464.22;6241858;22;20022;-81
2023/06/05 04:33:36;;;;;;;7.70;3.90;;;;;;;10.38;100.00;101467.81;6242498;22;20427;-77
2023/06/05 04:36:04;;;;;;;7.57;4.20;;;;;;;10.42;100.00;101473.94;6244378;22;20025;-82
2023/06/05 04:38:31;;;;;;;7.03;4.43;;;;;;;10.47;100.00;101473.94;6245187;22;20024;-77
2023/06/05 04:40:57;;;;;;;4.47;3.60;;;;;;;10.51;100.00;101467.91;6244215;22;20016;-78
2023/06/05 04:43:24;;;;;;;5.93;3.88;;;;;;;10.56;100.00;101464.41;6219255;22;20596;-81
2023/06/05 04:45:50;;;;;;;6.13;4.10;;;;;;;10.67;100.00;101460.97;6271015;22;20020;-78
2023/06/05 04:48:18;;;;;;;5.10;3.60;;;;;;;10.73;99.74;101463.63;6240467;22;20024;-79
2023/06/05 04:50:44;;;;;;;6.38;4.85;;;;;;;10.81;99.58;101469.75;6244508;22;20024;-77
2023/06/05 04:53:11;;;;;;;7.05;4.43;;;;;;;10.87;99.50;101466.25;6244467;22;20015;-84
2023/06/05 04:55:37;;;;;;;5.63;3.03;;;;;;;10.90;99.05;101466.28;6273340;22;20087;-81
2023/06/05 04:58:04;;;;;;;4.78;3.97;;;;;;;11.00;98.69;101467.16;6219201;22;20414;-79
2023/06/05 05:00:30;;;;;;;6.05;3.50;;;;;;;11.09;98.26;101459.31;6243705;22;20015;-78
2023/06/05 05:02:57;;;;;;;7.13;4.35;;;;;;;11.14;97.76;101456.72;6217782;22;20011;-79
2023/06/05 05:05:23;;;;;;;11.10;4.25;;;;;;;11.21;97.72;101464.59;6243014;22;20078;-81
2023/06/05 05:07:50;;;;;;;5.90;4.05;;;;;;;11.26;97.70;101461.97;6243310;22;20030;-82
2023/06/05 05:10:16;;;;;;;5.18;4.50;;;;;;;11.26;97.11;101461.97;6270436;22;20104;-84
2023/06/05 05:12:43;;;;;;;5.70;4.03;;;;;;;11.30;97.17;101457.59;6242473;22;20064;-81
2023/06/05 05:15:09;;;;;;;6.78;4.97;;;;;;;11.33;97.29;101466.34;6220369;22;20093;-79
2023/06/05 05:17:36;;;;;;;5.30;4.03;;;;;;;11.39;96.92;101458.50;6241546;22;20019;-78
2023/06/05 05:20:06;;;;;;;4.20;3.75;;;;;;;11.46;96.57;101461.09;6216698;22;20491;-82
2023/06/05 05:22:32;;;;;;;7.75;4.20;;;;;;;11.52;96.34;101459.34;6242196;22;20090;-85
2023/06/05 05:24:59;;;;;;;16.70;5.55;;;;;;;11.53;96.62;101460.25;6243168;22;20071;-80
2023/06/05 05:27:25;;;;;;;8.45;4.88;;;;;;;11.52;96.54;101464.59;6245486;22;20019;-79
2023/06/05 05:29:52;;;;;;;8.32;4.55;;;;;;;11.51;96.89;101460.25;6244095;22;20020;-79
2023/06/05 05:32:19;;;;;;;6.35;5.25;;;;;;;11.55;96.74;101467.25;6242988;22;20031;-78
2023/06/05 05:34:45;;;;;;;6.82;4.72;;;;;;;11.64;96.43;101466.38;6242133;22;20031;-84
2023/06/05 05:37:13;;;;;;;11.07;5.63;;;;;;;11.72;95.88;101462.00;6243247;22;20086;-79
2023/06/05 05:39:40;;;;;;;10.30;5.55;;;;;;;11.75;96.20;101464.59;6243156;22;20012;-82
2023/06/05 05:42:06;;;;;;;11.30;5.97;;;;;;;11.77;96.32;101464.59;6241906;22;20015;-81
2023/06/05 05:44:33;;;;;;;7.50;5.10;;;;;;;11.80;96.30;101464.59;6240235;22;20015;-79
2023/06/05 05:46:59;;;;;;;9.68;6.45;;;;;;;11.83;95.92;101459.34;6210169;22;20263;-82
2023/06/05 05:49:26;;;;;;;8.85;5.20;;;;;;;11.89;95.76;101463.72;6231384;22;20020;-87
2023/06/05 05:51:52;;;;;;;6.35;5.07;;;;;;;11.95;95.48;101462.84;6235858;22;20019;-80
2023/06/05 05:54:19;;;;;;;8.65;5.25;;;;;;;12.04;94.79;101461.09;6239519;22;20020;-82
2023/06/05 05:56:47;;;;;;;7.70;5.30;;;;;;;12.09;94.34;101468.97;6240211;22;20019;-80
2023/06/05 05:59:13;;;;;;;7.43;5.20;;;;;;;12.15;94.14;101465.44;6216045;22;20043;-80
2023/06/05 06:01:40;;;;;;;8.80;5.50;;;;;;;12.29;93.55;101466.28;6241751;22;20016;-78
2023/06/05 06:04:07;;;;;;;6.85;5.13;;;;;;;12.41;92.94;101468.88;6242173;22;20012;-82
2023/06/05 06:06:34;;;;;;;16.75;6.05;;;;;;;12.50;92.37;101467.97;6242229;22;20091;-78
2023/06/05 06:09:02;;;;;;;7.15;5.43;;;;;;;12.58;91.50;101476.69;6269500;22;20050;-81
2023/06/05 06:11:28;;;;;;;6.90;5.30;;;;;;;12.59;90.89;101464.41;6242365;22;20022;-79
2023/06/05 06:13:54;;;;;;;9.20;4.78;;;;;;;12.61;90.76;101473.19;6267440;22;20016;-77
2023/06/05 06:16:21;;;;;;;9.88;5.65;;;;;;;12.71;90.57;101476.63;6242001;22;20019;-80
2023/06/05 06:18:47;;;;;;;7.07;5.35;;;;;;;12.81;90.23;101469.59;6242905;22;20012;-77
2023/06/05 06:21:14;;;;;;;10.52;5.75;;;;;;;12.89;89.70;101470.41;6242689;22;20097;-81
2023/06/05 06:23:41;;;;;;;9.88;5.40;;;;;;;12.95;89.29;101470.38;6242106;22;20435;-79
2023/06/05 06:26:08;;;;;;;10.90;6.55;;;;;;;13.07;89.30;101478.22;6217028;22;20027;-82
2023/06/05 06:28:34;;;;;;;5.88;5.15;;;;;;;13.20;88.09;101473.72;6216738;22;20043;-80
2023/06/05 06:31:01;;;;;;;11.63;5.72;;;;;;;13.28;87.36;101473.66;6240931;22;20019;-82
2023/06/05 06:33:29;;;;;;;8.13;4.60;;;;;;;13.37;86.67;101476.25;6239157;22;20016;-83
2023/06/05 06:35:58;;;;;;;10.48;5.70;;;;;;;13.46;87.07;101472.69;6242404;22;20016;-80
2023/06/05 06:38:29;;;;;;;7.28;5.70;;;;;;;13.57;85.98;101480.50;6271181;22;20016;-77
2023/06/05 06:40:57;;;;;;;12.70;5.30;;;;;;;13.67;85.61;101482.16;6243964;22;20419;-81
2023/06/05 06:43:24;;;;;;;7.00;4.57;;;;;;;13.80;84.99;101482.06;6243682;22;20020;-78
2023/06/05 06:45:52;;;;;;;9.52;5.60;;;;;;;13.92;84.15;101479.31;6242636;22;20102;-82
2023/06/05 06:48:19;;;;;;;11.18;6.00;;;;;;;14.01;83.85;101481.84;6213822;22;20019;-81
2023/06/05 06:50:47;;;;;;;8.13;5.57;;;;;;;14.03;83.39;101480.09;6218174;22;20098;-78
2023/06/05 06:53:13;;;;;;;9.18;5.45;;;;;;;14.11;82.86;101477.38;6243399;22;20020;-78
2023/06/05 06:55:40;;;;;;;11.65;7.18;;;;;;;14.15;82.23;101486.97;6244338;22;20027;-78
2023/06/05 06:58:06;;;;;;;11.10;5.20;;;;;;;14.19;81.87;101477.28;6219752;22;20023;-77
2023/06/05 07:00:33;;;;;;;9.15;5.85;;;;;;;14.32;81.57;101481.53;6245066;22;20015;-80
2023/06/05 07:03:00;;;;;;;7.75;5.35;;;;;;;14.39;81.23;101480.59;6243058;22;20043;-78
2023/06/05 07:05:26;;;;;;;9.27;5.05;;;;;;;14.45;80.75;101473.50;6243219;22;20019;-78
2023/06/05 07:07:53;;;;;;;12.55;7.18;;;;;;;14.56;80.44;101475.13;6219337;22;20024;-79
2023/06/05 07:10:20;;;;;;;10.35;6.25;;;;;;;14.70;79.77;101479.34;6245508;22;20024;-84
2023/06/05 07:12:46;;;;;;;6.53;5.50;;;;;;;14.83;79.32;101475.66;6244522;22;20020;-80
2023/06/05 07:15:13;;;;;;;9.90;5.05;;;;;;;14.96;78.54;101473.72;6244705;22;20020;-77
2023/06/05 07:17:44;;;;;;;8.88;5.72;;;;;;;15.18;78.05;101468.16;6239216;22;20478;-84
2023/06/05 07:20:10;;;;;;;11.50;5.75;;;;;;;15.52;77.57;101464.97;6243530;22;20019;-78
2023/06/05 07:22:37;;;;;;;9.43;5.18;;;;;;;16.01;76.03;101468.59;6243866;22;20023;-78
2023/06/05 07:25:15;;;;;;;11.02;5.45;;;;;;;16.63;74.23;101464.69;6244313;22;20011;-80
2023/06/05 07:27:43;;;;;;;18.52;5.88;;;;;;;17.38;71.23;101464.81;6219645;22;20110;-87
2023/06/05 07:30:12;;;;;;;6.68;4.57;;;;;;;17.85;69.09;101470.66;6244903;22;20030;-77
2023/06/05 07:32:38;;;;;;;5.93;4.35;;;;;;;18.52;67.20;101466.22;6272457;22;20454;-79
2023/06/05 07:35:07;;;;;;;5.97;4.50;;;;;;;19.28;65.05;101462.16;6243806;22;20038;-78
2023/06/05 07:37:33;;;;;;;8.18;4.25;;;;;;;19.86;62.51;101461.13;6245254;22;20016;-78
2023/06/05 07:40:00;;;;;;;7.00;4.85;;;;;;;20.26;60.54;101458.81;6247758;22;20083;-79
2023/06/05 07:42:28;;;;;;;6.78;4.13;;;;;;;20.69;58.19;101461.66;6245625;22;20466;-81
2023/06/05 07:44:55;;;;;;;5.90;4.18;;;;;;;21.13;59.14;101459.06;6274201;22;20023;-81
2023/06/05 07:47:21;;;;;;;10.90;5.68;;;;;;;21.45;55.39;101459.56;6245719;22;20019;-79
2023/06/05 07:50:00;;;;;;;8.40;5.03;;;;;;;21.98;52.03;101464.41;6220403;22;20284;-79
2023/06/05 07:52:27;;;;;;;6.88;5.40;;;;;;;22.33;51.58;101457.56;6244741;22;20022;-79
2023/06/05 07:54:54;;;;;;;7.50;4.47;;;;;;;22.84;48.25;101456.09;6219185;22;20024;-84
2023/06/05 07:57:21;;;;;;;6.30;4.60;;;;;;;23.12;47.99;101462.75;6246792;22;20054;-79
2023/06/05 07:59:48;;;;;;;4.93;4.53;;;;;;;23.17;46.64;101458.09;6247984;22;20043;-83
2023/06/05 08:02:17;;;;;;;6.75;5.10;;;;;;;23.80;45.42;101451.38;6245681;22;20074;-86
2023/06/05 08:04:44;;;;;;;5.30;4.15;;;;;;;24.23;44.33;101458.97;6232785;22;20490;-81
2023/06/05 08:07:11;;;;;;;9.52;4.70;;;;;;;24.81;42.65;101459.41;6252698;22;20036;-79
2023/06/05 08:09:37;;;;;;;6.60;4.20;;;;;;;24.99;40.74;101460.19;6249290;22;20015;-78
2023/06/05 08:12:05;;;;;;;7.80;4.63;;;;;;;25.38;40.93;101456.19;6252959;22;20457;-78
2023/06/05 08:14:32;;;;;;;5.57;5.00;;;;;;;25.40;40.07;101455.13;6275475;22;20081;-82
2023/06/05 08:17:01;;;;;;;6.70;5.05;;;;;;;25.34;39.88;101452.78;6253435;22;20439;-78
2023/06/05 08:19:28;;;;;;;6.22;4.25;;;;;;;25.62;39.36;101453.88;6277594;22;20011;-83
2023/06/05 08:21:56;;;;;;;16.02;5.82;;;;;;;25.89;38.84;101447.78;6225077;22;20076;-79
2023/06/05 08:24:23;;;;;;;16.77;6.47;;;;;;;26.57;37.88;101451.66;6252173;22;20023;-82
2023/06/05 08:26:49;;;;;;;9.35;4.15;;;;;;;26.63;36.24;101451.25;6252093;22;20501;-79
2023/06/05 08:29:16;;;;;;;8.52;3.53;;;;;;;27.10;35.50;101446.44;6250250;22;20128;-80
2023/06/05 08:31:42;;;;;;;7.53;4.00;;;;;;;27.24;33.57;101445.53;6249572;22;20024;-79
2023/06/05 08:34:09;;;;;;;5.05;3.70;;;;;;;27.41;33.18;101441.72;6244924;22;20070;-77
2023/06/05 08:36:36;;;;;;;15.95;4.65;;;;;;;28.00;33.88;101443.09;6224283;22;20085;-79
2023/06/05 08:39:04;;;;;;;6.30;4.38;;;;;;;28.50;30.92;101432.38;6224866;22;20427;-79
2023/06/05 08:41:32;;;;;;;22.23;6.18;;;;;;;28.75;31.07;101431.50;6247492;22;20633;-78
2023/06/05 08:44:00;;;;;;;8.57;5.22;;;;;;;29.05;31.21;101431.03;6221672;22;20030;-79
2023/06/05 08:46:30;;;;;;;7.45;3.97;;;;;;;29.44;30.15;101433.53;6246500;22;20019;-78
2023/06/05 08:48:58;;;;;;;7.00;4.32;;;;;;;29.67;29.39;101423.69;6248399;22;20016;-86
2023/06/05 08:51:25;;;;;;;5.68;4.93;;;;;;;29.28;29.87;101427.59;6249064;22;20015;-79
2023/06/05 08:54:04;;;;;;;8.75;4.15;;;;;;;29.95;28.01;101420.69;6250517;22;20045;-79
2023/06/05 08:56:31;;;;;;;5.07;3.97;;;;;;;30.50;28.44;101426.19;6249503;22;20123;-82
2023/06/05 08:58:59;;;;;;;5.70;3.65;;;;;;;30.92;27.37;101420.06;6251729;22;20019;-79
2023/06/05 09:01:26;;;;;;;9.48;3.70;;;;;;;30.55;26.88;101420.41;6249812;22;20023;-79
2023/06/05 09:03:53;;;;;;;5.03;2.80;;;;;;;30.41;27.31;101416.97;6247725;22;20090;-79
2023/06/05 09:06:20;;;;;;;3.67;2.75;;;;;;;30.94;26.96;101421.66;6248843;22;20016;-79
2023/06/05 09:08:46;;;;;;;2.22;1.60;;;;;;;30.91;25.67;101416.53;6248061;22;20042;-79
2023/06/05 09:11:24;;;;;;;4.53;1.67;;;;;;;31.09;26.04;101413.28;6224516;22;20054;-81
2023/06/05 09:13:50;;;;;;;3.25;1.67;;;;;;;30.80;26.37;101419.25;6247149;22;20015;-79
2023/06/05 09:16:22;;;;;;;3.30;2.20;;;;;;;31.23;26.17;101415.66;6245964;22;20019;-81
2023/06/05 09:18:59;;;;;;;2.20;1.85;;;;;;;31.57;24.02;101415.47;6249055;22;20039;-81
2023/06/05 09:21:32;;;;;;;2.95;1.33;;;;;;;32.20;24.71;101411.84;6249012;22;20012;-78
2023/06/05 09:24:22;;;;;;;1.23;1.20;;;;;;;32.80;22.55;101414.59;6250179;22;20042;-81
2023/06/05 09:27:02;;;;;;;3.35;1.67;;;;;;;33.30;22.80;101413.63;6220694;22;20440;-82
2023/06/05 09:29:35;;;;;;;6.00;0.93;;;;;;;33.32;21.55;101410.75;6220264;22;20035;-82
2023/06/05 09:32:10;;;;;;;2.55;1.15;;;;;;;33.96;21.47;101411.06;6244771;22;20431;-84
2023/06/05 09:34:40;;;;;;;2.03;1.25;;;;;;;34.67;20.78;101414.13;6220031;22;20026;-81
2023/06/05 09:37:09;;;;;;;3.50;1.23;;;;;;;34.46;20.63;101413.41;6243805;22;20012;-80
2023/06/05 09:39:38;;;;;;;1.40;1.30;;;;;;;34.58;20.25;101405.03;6242490;22;20058;-81
2023/06/05 09:42:05;;;;;;;2.33;1.30;;;;;;;33.79;21.65;101405.41;6241419;22;20054;-83
2023/06/05 09:44:33;;;;;;;2.72;1.17;;;;;;;32.82;21.78;101400.91;6243190;22;20020;-79
2023/06/05 09:47:05;;;;;;;1.38;1.10;;;;;;;33.18;21.33;101400.31;6244349;22;20024;-79
2023/06/05 09:49:34;;;;;;;2.93;1.43;;;;;;;33.71;20.95;101397.09;6245058;22;20019;-80
2023/06/05 09:52:02;;;;;;;1.40;1.02;;;;;;;33.98;20.68;101400.91;6243344;22;20051;-82
2023/06/05 09:54:32;;;;;;;2.10;1.08;;;;;;;34.58;19.58;101395.00;6244470;22;20013;-79
2023/06/05 09:57:09;;;;;;;2.05;1.35;;;;;;;35.49;18.73;101395.88;6251386;22;20106;-79
2023/06/05 09:59:55;;;;;;;2.67;1.08;;;;;;;35.43;18.66;101391.91;6219395;22;20015;-82
2023/06/05 10:02:25;;;;;;;1.35;1.25;;;;;;;34.98;19.14;101389.31;6244928;22;20099;-79
2023/06/05 10:05:02;;;;;;;0.98;0.90;;;;;;;35.39;18.97;101389.66;6246222;22;20012;-82
2023/06/05 10:07:31;;;;;;;1.27;1.17;;;;;;;36.11;18.83;101386.66;6243233;22;20029;-81
2023/06/05 10:09:58;;;;;;;2.85;1.42;;;;;;;36.14;18.38;101391.81;6241651;22;20098;-82
2023/06/05 10:12:27;;;;;;;1.17;1.08;;;;;;;36.03;16.77;101389.38;6240539;22;20131;-82
2023/06/05 10:14:55;;;;;;;4.75;1.52;;;;;;;36.00;17.11;101392.44;6241404;22;20015;-80
2023/06/05 10:17:23;;;;;;;1.00;0.90;;;;;;;36.58;16.27;101383.44;6209947;22;20050;-81
2023/06/05 10:19:50;;;;;;;0.60;0.60;;;;;;;36.32;16.44;101380.78;6243347;22;20020;-79
2023/06/05 10:22:19;;;;;;;2.97;1.08;;;;;;;36.97;15.44;101381.97;6243827;22;20015;-81
2023/06/05 10:24:55;;;;;;;2.60;1.45;;;;;;;35.97;16.22;101382.72;6194921;22;20338;-81
2023/06/05 10:27:38;;;;;;;2.85;0.90;;;;;;;36.12;15.87;101372.03;6246814;22;20020;-78
2023/06/05 10:30:40;;;;;;;1.25;0.90;;;;;;;35.80;16.25;101372.72;6270498;22;20264;-79
2023/06/05 10:33:37;;;;;;;;;;;;;;;35.59;16.33;101369.38;6243873;22;20020;-78
2023/06/05 10:36:40;;;;;;;1.15;1.00;;;;;;;35.74;15.43;101368.78;6216863;22;20326;-80
2023/06/05 10:39:14;;;;;;;1.48;1.10;;;;;;;36.04;15.55;101367.41;6215794;22;20019;-80
2023/06/05 10:41:41;;;;;;;1.80;0.98;;;;;;;36.56;15.87;101362.81;6244257;22;20095;-81
2023/06/05 10:44:08;;;;;;;1.05;0.93;;;;;;;37.21;14.23;101370.19;6226942;22;20019;-83
2023/06/05 10:46:37;;;;;;;1.40;1.10;;;;;;;37.51;13.74;101365.03;6248111;22;20011;-79
2023/06/05 10:49:19;;;;;;;2.92;0.60;;;;;;;38.07;14.18;101358.72;6244378;22;20012;-79
2023/06/05 10:51:50;;;;;;;0.80;0.70;;;;;;;37.73;14.30;101365.31;6244078;22;20025;-85
2023/06/05 10:54:38;;;;;;;1.75;0.70;;;;;;;38.03;13.84;101360.09;6217165;22;20016;-80
2023/06/05 10:57:06;;;;;;;1.45;0.88;;;;;;;38.07;13.49;101350.53;6270588;22;20023;-80
2023/06/05 10:59:35;;;;;;;1.08;1.08;;;;;;;37.08;14.06;101367.13;6244186;22;20024;-80
2023/06/05 11:02:08;;;;;;;3.85;1.10;;;;;;;35.59;15.19;101363.94;6243267;22;20016;-83
2023/06/05 11:04:46;;;;;;;2.17;0.85;;;;;;;35.86;15.42;101356.59;6270408;22;20016;-80
2023/06/05 11:07:26;;;;;;;1.17;1.00;;;;;;;37.37;13.94;101352.94;6244486;22;20019;-83
2023/06/05 11:10:20;;;;;;;1.48;0.80;;;;;;;37.84;14.20;101355.94;6240863;22;20019;-87
2023/06/05 11:12:46;;;;;;;1.48;0.85;;;;;;;38.19;14.40;101340.88;6244026;22;20123;-85
2023/06/05 11:15:31;;;;;;;2.20;1.25;;;;;;;38.94;13.72;101335.75;6272580;22;20020;-83
2023/06/05 11:18:27;;;;;;;2.78;1.02;;;;;;;39.27;13.60;101334.63;6272613;22;20016;-78
2023/06/05 11:20:54;;;;;;;1.13;1.13;;;;;;;39.23;13.73;101333.28;6245229;22;20027;-79
2023/06/05 11:23:21;;;;;;;1.30;1.23;;;;;;;39.81;13.65;101328.03;6271712;22;20074;-79
2023/06/05 11:25:50;;;;;;;1.92;1.30;;;;;;;38.81;13.23;101330.06;6272606;22;20511;-83
2023/06/05 11:28:41;;;;;;;1.40;1.00;;;;;;;38.34;12.82;101330.03;6245549;22;20450;-83
2023/06/05 11:31:07;;;;;;;1.48;0.90;;;;;;;37.93;13.11;101333.00;6244962;22;20043;-83
2023/06/05 11:33:34;;;;;;;2.55;0.90;;;;;;;37.71;13.53;101335.44;6220490;22;20430;-89